createdAt,value
2022-07-31T00:00:31.243Z,0.00
2022-07-31T00:01:30.218Z,0.00
2022-07-31T00:02:30.208Z,0.00
2022-07-31T00:03:30.297Z,0.00
2022-07-31T00:04:30.201Z,0.00
2022-07-31T00:05:30.199Z,0.00
2022-07-31T00:06:31.070Z,0.00
2022-07-31T00:07:30.174Z,0.00
2022-07-31T00:08:30.186Z,0.00
2022-07-31T00:09:52.968Z,0.00
2022-07-31T00:10:31.201Z,0.00
2022-07-31T00:11:30.158Z,0.00
2022-07-31T00:12:30.134Z,0.00
2022-07-31T00:13:57.120Z,0.00
2022-07-31T00:14:31.117Z,0.00
2022-07-31T00:15:30.135Z,0.00
2022-07-31T00:16:30.130Z,0.00
2022-07-31T00:17:30.102Z,0.00
2022-07-31T00:18:30.084Z,0.00
2022-07-31T00:19:30.102Z,0.00
2022-07-31T00:20:30.138Z,0.00
2022-07-31T00:21:30.070Z,0.00
2022-07-31T00:22:30.188Z,0.00
2022-07-31T00:23:30.049Z,0.00
2022-07-31T00:24:30.261Z,0.00
2022-07-31T00:25:30.054Z,0.00
2022-07-31T00:26:30.043Z,0.00
2022-07-31T00:27:30.012Z,0.00
2022-07-31T00:28:30.020Z,0.00
2022-07-31T00:29:29.999Z,0.00
2022-07-31T00:30:30.038Z,0.00
2022-07-31T00:31:30.008Z,0.00
2022-07-31T00:32:29.991Z,0.00
2022-07-31T00:33:29.986Z,0.00
2022-07-31T00:34:29.995Z,0.00
2022-07-31T00:35:29.960Z,0.00
2022-07-31T00:36:30.398Z,0.00
2022-07-31T00:37:29.945Z,0.00
2022-07-31T00:38:29.962Z,0.00
2022-07-31T00:39:29.953Z,0.00
2022-07-31T00:40:29.931Z,0.00
2022-07-31T00:41:29.930Z,0.00
2022-07-31T00:42:29.929Z,0.00
2022-07-31T00:43:30.806Z,0.00
2022-07-31T00:44:29.910Z,0.00
2022-07-31T00:45:31.760Z,0.00
2022-07-31T00:46:29.866Z,0.00
2022-07-31T00:47:29.923Z,0.00
2022-07-31T00:48:29.897Z,0.00
2022-07-31T00:49:37.795Z,0.00
2022-07-31T00:50:30.882Z,0.00
2022-07-31T00:51:29.834Z,0.00
2022-07-31T00:52:29.847Z,0.00
2022-07-31T00:53:29.823Z,0.00
2022-07-31T00:54:29.826Z,0.00
2022-07-31T00:55:29.850Z,0.00
2022-07-31T00:56:29.797Z,0.00
2022-07-31T00:57:29.867Z,0.00
2022-07-31T00:58:29.798Z,0.00
2022-07-31T00:59:29.809Z,0.00
2022-07-31T01:00:29.790Z,0.00
2022-07-31T01:01:29.953Z,0.00
2022-07-31T01:02:29.762Z,0.00
2022-07-31T01:03:29.755Z,0.00
2022-07-31T01:04:31.269Z,0.00
2022-07-31T01:05:29.748Z,0.00
2022-07-31T01:06:29.744Z,0.00
2022-07-31T01:07:29.715Z,0.00
2022-07-31T01:08:29.734Z,0.00
2022-07-31T01:09:29.713Z,0.00
2022-07-31T01:10:29.685Z,0.00
2022-07-31T01:11:29.677Z,0.00
2022-07-31T01:12:29.731Z,0.00
2022-07-31T01:13:29.681Z,0.00
2022-07-31T01:14:29.745Z,0.00
2022-07-31T01:15:29.654Z,0.00
2022-07-31T01:16:29.650Z,0.00
2022-07-31T01:17:29.666Z,0.00
2022-07-31T01:18:30.498Z,0.00
2022-07-31T01:19:39.744Z,0.00
2022-07-31T01:20:30.620Z,0.00
2022-07-31T01:21:29.616Z,0.00
2022-07-31T01:22:34.031Z,0.00
2022-07-31T01:23:30.603Z,0.00
2022-07-31T01:24:29.589Z,0.00
2022-07-31T01:25:29.597Z,0.00
2022-07-31T01:26:29.576Z,0.00
2022-07-31T01:27:29.616Z,0.00
2022-07-31T01:28:29.572Z,0.00
2022-07-31T01:29:29.689Z,0.00
2022-07-31T01:30:30.980Z,0.00
2022-07-31T01:31:30.545Z,0.00
2022-07-31T01:32:29.568Z,0.00
2022-07-31T01:33:29.577Z,0.00
2022-07-31T01:34:29.563Z,0.00
2022-07-31T01:35:29.508Z,0.00
2022-07-31T01:36:29.501Z,0.00
2022-07-31T01:37:30.514Z,0.00
2022-07-31T01:38:29.491Z,0.00
2022-07-31T01:39:33.736Z,0.00
2022-07-31T01:40:29.486Z,0.00
2022-07-31T01:41:29.486Z,0.00
2022-07-31T01:42:29.485Z,0.00
2022-07-31T01:43:29.464Z,0.00
2022-07-31T01:44:29.440Z,0.00
2022-07-31T02:02:33.778Z,0.00
2022-07-31T02:03:42.897Z,0.00
2022-07-31T02:04:34.827Z,0.00
2022-07-31T02:05:33.760Z,0.00
2022-07-31T02:06:34.860Z,0.00
2022-07-31T02:07:34.873Z,0.00
2022-07-31T02:08:34.865Z,0.00
2022-07-31T02:09:34.832Z,0.00
2022-07-31T02:10:34.847Z,0.00
2022-07-31T02:11:34.817Z,0.00
2022-07-31T02:12:35.904Z,0.00
2022-07-31T02:14:06.749Z,0.00
2022-07-31T02:14:34.796Z,0.00
2022-07-31T02:15:34.781Z,0.00
2022-07-31T02:16:34.802Z,0.00
2022-07-31T02:17:34.780Z,0.00
2022-07-31T02:18:34.801Z,0.00
2022-07-31T02:19:34.771Z,0.00
2022-07-31T02:20:34.764Z,0.00
2022-07-31T02:21:34.723Z,0.00
2022-07-31T02:22:34.751Z,0.00
2022-07-31T02:23:34.722Z,0.00
2022-07-31T02:24:34.720Z,0.00
2022-07-31T02:25:34.713Z,0.00
2022-07-31T02:26:34.674Z,0.00
2022-07-31T02:27:55.451Z,0.00
2022-07-31T02:28:35.673Z,0.00
2022-07-31T02:29:34.704Z,0.00
2022-07-31T02:30:38.942Z,0.00
2022-07-31T02:31:35.660Z,0.00
2022-07-31T02:32:34.650Z,0.00
2022-07-31T02:33:34.631Z,0.00
2022-07-31T02:34:34.640Z,0.00
2022-07-31T02:35:34.640Z,0.00
2022-07-31T02:36:34.609Z,0.00
2022-07-31T02:37:34.719Z,0.00
2022-07-31T02:38:34.592Z,0.00
2022-07-31T02:39:34.666Z,0.00
2022-07-31T02:40:34.568Z,0.00
2022-07-31T02:41:34.571Z,0.00
2022-07-31T02:42:34.564Z,0.00
2022-07-31T02:43:34.560Z,0.00
2022-07-31T02:44:34.610Z,0.00
2022-07-31T02:45:34.541Z,0.00
2022-07-31T02:46:34.539Z,0.00
2022-07-31T02:47:34.509Z,0.00
2022-07-31T02:48:35.508Z,0.00
2022-07-31T02:49:34.772Z,0.00
2022-07-31T02:50:34.505Z,0.00
2022-07-31T02:51:41.042Z,0.00
2022-07-31T02:52:35.633Z,0.00
2022-07-31T02:53:34.480Z,0.00
2022-07-31T02:54:34.471Z,0.00
2022-07-31T02:55:34.499Z,0.00
2022-07-31T02:56:34.453Z,0.00
2022-07-31T02:57:34.448Z,0.00
2022-07-31T02:58:34.439Z,0.00
2022-07-31T02:59:34.429Z,0.00
2022-07-31T03:00:34.479Z,0.00
2022-07-31T03:01:34.418Z,0.00
2022-07-31T03:02:36.964Z,0.00
2022-07-31T03:03:35.474Z,0.00
2022-07-31T03:04:34.383Z,0.00
2022-07-31T03:05:34.412Z,0.00
2022-07-31T03:06:34.396Z,0.00
2022-07-31T03:07:34.362Z,0.00
2022-07-31T03:08:34.356Z,0.00
2022-07-31T03:09:34.358Z,0.00
2022-07-31T03:10:34.358Z,0.00
2022-07-31T03:11:34.337Z,4.00
2022-07-31T03:12:34.325Z,4.00
2022-07-31T03:13:34.322Z,4.00
2022-07-31T03:14:34.322Z,0.00
2022-07-31T03:15:34.326Z,4.00
2022-07-31T03:16:34.312Z,4.00
2022-07-31T03:17:40.782Z,8.00
2022-07-31T03:18:35.286Z,4.00
2022-07-31T03:19:34.281Z,8.00
2022-07-31T03:20:34.265Z,8.00
2022-07-31T03:21:34.351Z,8.00
2022-07-31T03:22:34.251Z,8.00
2022-07-31T03:23:34.292Z,12.00
2022-07-31T03:24:34.236Z,16.00
2022-07-31T03:25:34.245Z,16.00
2022-07-31T03:26:34.216Z,16.00
2022-07-31T03:27:34.214Z,20.00
2022-07-31T03:28:34.238Z,24.00
2022-07-31T03:29:39.085Z,28.00
2022-07-31T03:30:35.211Z,32.00
2022-07-31T03:31:34.187Z,36.00
2022-07-31T03:32:34.187Z,48.00
2022-07-31T03:33:34.241Z,52.00
2022-07-31T03:34:34.185Z,60.00
2022-07-31T03:35:34.146Z,72.00
2022-07-31T03:36:35.128Z,80.00
2022-07-31T03:37:35.140Z,92.00
2022-07-31T03:38:41.708Z,104.00
2022-07-31T03:39:35.104Z,116.00
2022-07-31T03:40:34.123Z,132.00
2022-07-31T03:41:34.116Z,144.00
2022-07-31T03:42:34.111Z,164.00
2022-07-31T03:43:47.584Z,184.00
2022-07-31T03:44:35.077Z,204.00
2022-07-31T03:45:34.061Z,220.00
2022-07-31T04:01:57.731Z,664.00
2022-07-31T04:02:40.718Z,696.00
2022-07-31T04:03:39.613Z,724.00
2022-07-31T04:04:39.598Z,752.00
2022-07-31T04:05:40.712Z,780.00
2022-07-31T04:06:40.718Z,808.00
2022-07-31T04:07:40.717Z,840.00
2022-07-31T04:08:40.707Z,864.00
2022-07-31T04:09:40.690Z,896.00
2022-07-31T04:10:40.674Z,932.00
2022-07-31T04:11:40.661Z,964.00
2022-07-31T04:12:40.651Z,988.00
2022-07-31T04:13:40.680Z,1008.00
2022-07-31T04:14:40.650Z,1032.00
2022-07-31T04:15:40.634Z,1056.00
2022-07-31T04:16:40.624Z,1068.00
2022-07-31T04:17:40.647Z,1004.00
2022-07-31T04:18:40.607Z,1016.00
2022-07-31T04:19:40.634Z,1132.00
2022-07-31T04:20:40.597Z,1188.00
2022-07-31T04:21:40.605Z,1224.00
2022-07-31T04:22:40.591Z,1256.00
2022-07-31T04:23:40.578Z,1300.00
2022-07-31T04:24:41.599Z,1348.00
2022-07-31T04:25:40.559Z,1404.00
2022-07-31T04:26:40.551Z,1472.00
2022-07-31T04:27:48.342Z,1548.00
2022-07-31T04:28:41.524Z,1636.00
2022-07-31T04:29:40.529Z,1732.00
2022-07-31T04:30:40.549Z,1836.00
2022-07-31T04:31:40.515Z,1948.00
2022-07-31T04:32:40.545Z,2048.00
2022-07-31T04:33:46.456Z,2140.00
2022-07-31T04:34:41.503Z,2224.00
2022-07-31T04:35:40.495Z,2324.00
2022-07-31T04:36:40.477Z,2424.00
2022-07-31T04:37:40.487Z,2520.00
2022-07-31T04:38:41.458Z,2636.00
2022-07-31T04:39:40.464Z,2768.00
2022-07-31T04:40:40.459Z,2928.00
2022-07-31T04:41:40.435Z,3084.00
2022-07-31T04:42:40.443Z,3308.00
2022-07-31T04:43:41.417Z,4328.00
2022-07-31T04:44:40.409Z,6464.00
2022-07-31T04:45:40.435Z,6800.00
2022-07-31T04:46:40.399Z,7628.00
2022-07-31T04:47:40.389Z,7200.00
2022-07-31T04:48:41.280Z,7880.00
2022-07-31T04:49:40.379Z,8580.00
2022-07-31T04:50:40.387Z,9836.00
2022-07-31T04:51:40.358Z,10360.00
2022-07-31T04:52:40.350Z,8440.00
2022-07-31T04:53:40.372Z,6764.00
2022-07-31T04:54:40.333Z,6612.00
2022-07-31T04:55:40.385Z,8468.00
2022-07-31T04:56:40.318Z,12224.00
2022-07-31T04:57:40.322Z,11384.00
2022-07-31T04:58:40.303Z,10888.00
2022-07-31T04:59:59.265Z,12224.00
2022-07-31T05:00:41.315Z,13056.00
2022-07-31T05:01:40.334Z,16736.00
2022-07-31T05:02:40.285Z,19200.00
2022-07-31T05:03:40.293Z,21120.00
2022-07-31T05:04:40.308Z,22304.00
2022-07-31T05:05:40.269Z,20672.00
2022-07-31T05:06:40.251Z,19008.00
2022-07-31T05:07:40.248Z,24000.00
2022-07-31T05:08:40.230Z,25120.00
2022-07-31T05:09:40.234Z,28832.00
2022-07-31T05:10:40.223Z,28000.00
2022-07-31T05:11:40.205Z,30816.00
2022-07-31T05:12:40.207Z,31392.00
2022-07-31T05:13:40.224Z,29376.00
2022-07-31T05:14:40.187Z,30784.00
2022-07-31T05:15:40.178Z,29824.00
2022-07-31T05:16:40.167Z,32128.00
2022-07-31T05:17:40.162Z,35552.00
2022-07-31T05:18:40.177Z,38208.00
2022-07-31T05:19:40.151Z,37184.00
2022-07-31T05:20:40.146Z,36800.00
2022-07-31T05:21:46.945Z,37472.00
2022-07-31T05:22:41.158Z,39648.00
2022-07-31T05:23:40.121Z,39872.00
2022-07-31T05:24:40.111Z,35648.00
2022-07-31T05:25:40.113Z,37376.00
2022-07-31T05:26:40.115Z,35392.00
2022-07-31T05:27:41.385Z,25664.00
2022-07-31T05:28:40.076Z,37440.00
2022-07-31T05:29:40.068Z,29024.00
2022-07-31T05:30:40.063Z,20576.00
2022-07-31T05:31:40.058Z,41312.00
2022-07-31T05:32:41.067Z,49600.00
2022-07-31T05:33:40.070Z,49792.00
2022-07-31T05:34:40.058Z,50752.00
2022-07-31T05:35:40.043Z,52288.00
2022-07-31T05:36:40.029Z,53088.00
2022-07-31T05:37:40.054Z,53088.00
2022-07-31T05:38:40.028Z,55200.00
2022-07-31T05:39:39.997Z,56224.00
2022-07-31T05:40:40.039Z,56896.00
2022-07-31T05:41:39.980Z,58784.00
2022-07-31T05:42:39.991Z,59712.00
2022-07-31T05:43:39.969Z,59744.00
2022-07-31T05:44:40.010Z,60608.00
2022-07-31T05:45:39.985Z,62048.00
2022-07-31T05:46:39.964Z,61024.00
2022-07-31T05:47:41.088Z,51552.00
2022-07-31T05:48:39.933Z,55712.00
2022-07-31T05:49:39.950Z,40544.00
2022-07-31T05:50:39.923Z,50080.00
2022-07-31T05:51:39.915Z,37984.00
2022-07-31T05:52:39.902Z,32576.00
2022-07-31T05:53:39.902Z,36672.00
2022-07-31T05:54:39.889Z,49824.00
2022-07-31T05:55:39.902Z,42432.00
2022-07-31T05:56:39.884Z,28832.00
2022-07-31T05:57:39.868Z,22336.00
2022-07-31T05:58:39.868Z,17408.00
2022-07-31T05:59:39.866Z,14796.00
2022-07-31T06:00:39.880Z,13836.00
2022-07-31T06:01:39.890Z,13460.00
2022-07-31T06:02:39.839Z,13004.00
2022-07-31T06:03:52.151Z,12708.00
2022-07-31T06:04:40.828Z,12652.00
2022-07-31T06:05:39.820Z,12980.00
2022-07-31T06:06:39.887Z,12660.00
2022-07-31T06:07:39.804Z,12104.00
2022-07-31T06:08:39.787Z,11676.00
2022-07-31T06:09:39.778Z,11312.00
2022-07-31T06:10:39.788Z,11180.00
2022-07-31T06:11:39.808Z,10656.00
2022-07-31T06:12:39.761Z,10304.00
2022-07-31T06:13:39.754Z,10076.00
2022-07-31T06:14:39.737Z,9924.00
2022-07-31T06:15:39.929Z,9780.00
2022-07-31T06:16:40.753Z,9552.00
2022-07-31T06:17:43.794Z,9288.00
2022-07-31T06:18:39.716Z,8912.00
2022-07-31T06:19:39.700Z,8648.00
2022-07-31T06:20:39.705Z,8400.00
2022-07-31T06:21:39.687Z,8232.00
2022-07-31T06:22:39.706Z,8392.00
2022-07-31T06:23:39.691Z,8244.00
2022-07-31T06:24:42.533Z,7952.00
2022-07-31T06:25:39.650Z,7880.00
2022-07-31T06:26:39.667Z,7924.00
2022-07-31T06:27:39.635Z,8028.00
2022-07-31T06:28:47.476Z,8128.00
2022-07-31T06:29:42.232Z,8196.00
2022-07-31T06:30:39.624Z,8180.00
2022-07-31T06:31:39.635Z,8092.00
2022-07-31T06:32:39.603Z,7988.00
2022-07-31T06:33:39.588Z,7864.00
2022-07-31T06:34:39.573Z,7676.00
2022-07-31T06:35:39.582Z,7564.00
2022-07-31T06:36:39.596Z,7516.00
2022-07-31T06:37:39.578Z,7408.00
2022-07-31T06:38:39.545Z,7312.00
2022-07-31T06:39:55.381Z,7216.00
2022-07-31T06:40:40.540Z,7172.00
2022-07-31T06:41:39.546Z,7228.00
2022-07-31T06:42:39.522Z,7380.00
2022-07-31T06:43:39.526Z,7564.00
2022-07-31T06:44:46.011Z,7796.00
2022-07-31T06:45:50.825Z,7892.00
2022-07-31T06:46:49.129Z,8100.00
2022-07-31T06:47:40.483Z,8952.00
2022-07-31T06:48:39.483Z,8140.00
2022-07-31T06:49:39.492Z,8256.00
2022-07-31T06:50:39.459Z,8656.00
2022-07-31T06:51:39.471Z,9100.00
2022-07-31T06:52:39.458Z,9628.00
2022-07-31T06:53:39.436Z,10072.00
2022-07-31T06:54:39.442Z,10428.00
2022-07-31T06:55:44.083Z,10904.00
2022-07-31T06:56:40.468Z,11452.00
2022-07-31T06:57:39.407Z,11952.00
2022-07-31T06:58:39.400Z,12504.00
2022-07-31T06:59:40.811Z,12800.00
2022-07-31T07:00:39.407Z,12596.00
2022-07-31T07:01:39.487Z,12552.00
2022-07-31T07:02:39.377Z,12552.00
2022-07-31T07:03:39.369Z,12384.00
2022-07-31T07:05:04.342Z,12064.00
2022-07-31T07:05:45.097Z,11624.00
2022-07-31T07:06:40.384Z,11748.00
2022-07-31T07:07:39.334Z,12188.00
2022-07-31T07:08:39.324Z,13028.00
2022-07-31T07:09:39.361Z,14400.00
2022-07-31T07:10:39.308Z,17888.00
2022-07-31T07:11:39.301Z,20800.00
2022-07-31T07:12:39.296Z,18496.00
2022-07-31T07:13:45.695Z,19840.00
2022-07-31T07:14:40.299Z,20096.00
2022-07-31T07:15:39.281Z,27456.00
2022-07-31T07:16:39.270Z,34912.00
2022-07-31T07:17:39.264Z,36160.00
2022-07-31T07:18:39.339Z,40480.00
2022-07-31T07:19:39.244Z,41664.00
2022-07-31T07:20:39.252Z,34624.00
2022-07-31T07:21:39.239Z,30304.00
2022-07-31T07:22:39.221Z,27200.00
2022-07-31T07:23:39.238Z,24640.00
2022-07-31T07:24:39.218Z,27424.00
2022-07-31T07:25:39.196Z,26048.00
2022-07-31T07:26:39.231Z,26976.00
2022-07-31T07:27:39.191Z,34624.00
2022-07-31T07:28:39.184Z,38144.00
2022-07-31T07:29:39.196Z,26656.00
2022-07-31T07:30:39.169Z,25184.00
2022-07-31T07:31:39.198Z,24736.00
2022-07-31T07:32:39.144Z,27936.00
2022-07-31T07:33:40.513Z,20064.00
2022-07-31T07:34:39.159Z,18528.00
2022-07-31T07:35:39.133Z,17984.00
2022-07-31T07:36:39.153Z,17856.00
2022-07-31T07:37:39.317Z,18048.00
2022-07-31T07:38:39.134Z,18784.00
2022-07-31T07:39:39.107Z,23200.00
2022-07-31T07:40:39.127Z,22528.00
2022-07-31T07:41:39.078Z,21696.00
2022-07-31T07:42:39.084Z,23872.00
2022-07-31T07:43:39.098Z,38784.00
2022-07-31T07:44:39.064Z,78016.00
2022-07-31T07:45:40.079Z,40672.00
2022-07-31T07:46:39.073Z,41344.00
2022-07-31T07:48:06.133Z,39616.00
2022-07-31T07:48:40.057Z,39232.00
2022-07-31T07:49:39.043Z,26624.00
2022-07-31T07:50:39.016Z,24128.00
2022-07-31T07:51:59.633Z,21696.00
2022-07-31T07:52:43.884Z,20064.00
2022-07-31T07:53:39.994Z,19072.00
2022-07-31T07:54:39.009Z,18144.00
2022-07-31T07:55:38.984Z,17792.00
2022-07-31T07:56:39.015Z,18208.00
2022-07-31T07:57:39.011Z,17408.00
2022-07-31T07:58:38.982Z,17280.00
2022-07-31T07:59:38.967Z,18016.00
2022-07-31T08:00:38.992Z,19136.00
2022-07-31T08:01:39.008Z,17984.00
2022-07-31T08:02:38.961Z,17568.00
2022-07-31T08:03:48.520Z,17024.00
2022-07-31T08:04:39.939Z,17920.00
2022-07-31T08:05:38.962Z,23488.00
2022-07-31T08:06:38.901Z,23680.00
2022-07-31T08:07:42.703Z,27488.00
2022-07-31T08:08:38.908Z,35232.00
2022-07-31T08:09:38.901Z,19872.00
2022-07-31T08:10:38.921Z,18016.00
2022-07-31T08:11:38.891Z,17120.00
2022-07-31T08:12:38.866Z,18208.00
2022-07-31T08:13:40.857Z,36416.00
2022-07-31T08:15:11.826Z,60992.00
2022-07-31T08:15:38.974Z,74784.00
2022-07-31T08:16:39.877Z,63296.00
2022-07-31T08:17:38.896Z,29920.00
2022-07-31T08:18:38.888Z,36640.00
2022-07-31T08:19:38.814Z,31648.00
2022-07-31T08:20:38.844Z,25952.00
2022-07-31T08:21:38.800Z,33024.00
2022-07-31T08:22:38.818Z,33632.00
2022-07-31T08:23:38.818Z,33376.00
2022-07-31T08:24:38.848Z,26592.00
2022-07-31T08:25:38.812Z,30272.00
2022-07-31T08:26:38.813Z,25248.00
2022-07-31T08:27:40.363Z,25248.00
2022-07-31T08:28:38.775Z,21504.00
2022-07-31T08:29:38.787Z,20512.00
2022-07-31T08:30:38.765Z,20672.00
2022-07-31T08:31:38.763Z,20352.00
2022-07-31T08:32:39.478Z,21824.00
2022-07-31T08:33:38.747Z,20928.00
2022-07-31T08:34:41.828Z,21120.00
2022-07-31T08:35:39.719Z,24192.00
2022-07-31T08:36:39.727Z,21696.00
2022-07-31T08:37:57.574Z,23296.00
2022-07-31T08:38:39.711Z,38464.00
2022-07-31T08:39:38.724Z,31488.00
2022-07-31T08:40:43.378Z,44128.00
2022-07-31T08:41:39.698Z,31008.00
2022-07-31T08:42:38.655Z,31104.00
2022-07-31T08:44:02.511Z,30208.00
2022-07-31T08:44:39.670Z,23104.00
2022-07-31T08:45:40.380Z,22432.00
2022-07-31T08:46:39.663Z,23296.00
2022-07-31T08:47:38.652Z,24160.00
2022-07-31T08:48:38.637Z,24064.00
2022-07-31T08:49:38.688Z,23552.00
2022-07-31T08:50:38.669Z,29952.00
2022-07-31T08:51:50.588Z,43168.00
2022-07-31T08:52:39.610Z,27200.00
2022-07-31T08:53:38.608Z,22784.00
2022-07-31T08:54:38.590Z,27840.00
2022-07-31T08:55:56.068Z,28832.00
2022-07-31T08:56:39.605Z,29472.00
2022-07-31T08:57:38.618Z,27648.00
2022-07-31T08:58:39.894Z,22464.00
2022-07-31T08:59:39.566Z,20288.00
2022-07-31T09:00:38.588Z,19168.00
2022-07-31T09:01:38.612Z,18240.00
2022-07-31T09:02:38.539Z,17152.00
2022-07-31T09:03:38.566Z,16320.00
2022-07-31T09:04:39.473Z,16000.00
2022-07-31T09:05:42.325Z,15872.00
2022-07-31T09:06:38.566Z,16096.00
2022-07-31T09:07:38.528Z,15648.00
2022-07-31T09:08:38.514Z,14996.00
2022-07-31T09:09:51.750Z,14404.00
2022-07-31T09:10:39.481Z,13988.00
2022-07-31T09:11:38.482Z,13584.00
2022-07-31T09:12:38.551Z,13264.00
2022-07-31T09:13:38.441Z,13056.00
2022-07-31T09:14:38.444Z,13164.00
2022-07-31T09:15:38.461Z,13024.00
2022-07-31T09:16:38.449Z,12976.00
2022-07-31T09:17:38.434Z,12956.00
2022-07-31T09:18:38.431Z,12964.00
2022-07-31T09:19:53.973Z,12840.00
2022-07-31T09:20:39.429Z,12676.00
2022-07-31T09:21:38.413Z,12408.00
2022-07-31T09:22:38.390Z,12264.00
2022-07-31T09:23:38.464Z,12284.00
2022-07-31T09:24:39.835Z,12448.00
2022-07-31T09:25:38.373Z,12760.00
2022-07-31T09:26:38.377Z,13468.00
2022-07-31T09:27:38.373Z,13344.00
2022-07-31T09:28:38.383Z,13400.00
2022-07-31T09:29:38.398Z,13608.00
2022-07-31T09:30:55.695Z,13696.00
2022-07-31T09:31:39.339Z,22240.00
2022-07-31T09:32:38.328Z,13892.00
2022-07-31T09:33:43.661Z,14028.00
2022-07-31T09:34:40.355Z,14904.00
2022-07-31T09:35:38.350Z,18816.00
2022-07-31T09:36:38.340Z,21248.00
2022-07-31T09:37:38.339Z,23680.00
2022-07-31T09:38:38.314Z,25216.00
2022-07-31T09:39:38.312Z,24608.00
2022-07-31T09:40:51.547Z,24512.00
2022-07-31T09:41:56.623Z,24000.00
2022-07-31T09:42:39.298Z,25632.00
2022-07-31T09:43:52.066Z,21184.00
2022-07-31T09:44:39.281Z,19104.00
2022-07-31T09:45:48.086Z,18080.00
2022-07-31T09:46:39.307Z,17856.00
2022-07-31T09:47:38.215Z,17856.00
2022-07-31T09:48:38.243Z,18592.00
2022-07-31T09:49:39.300Z,19392.00
2022-07-31T09:50:38.328Z,21216.00
2022-07-31T09:51:38.217Z,24448.00
2022-07-31T09:52:38.208Z,20160.00
2022-07-31T09:53:43.022Z,19680.00
2022-07-31T09:54:40.182Z,18880.00
2022-07-31T09:55:38.171Z,19552.00
2022-07-31T09:56:38.222Z,18112.00
2022-07-31T09:57:38.198Z,16736.00
2022-07-31T09:58:38.162Z,15756.00
2022-07-31T09:59:38.145Z,14604.00
2022-07-31T10:00:38.215Z,13748.00
2022-07-31T10:01:38.137Z,13276.00
2022-07-31T10:02:38.186Z,13068.00
2022-07-31T10:03:38.130Z,13504.00
2022-07-31T10:04:38.157Z,13608.00
2022-07-31T10:05:38.156Z,14736.00
2022-07-31T10:06:38.107Z,17472.00
2022-07-31T10:07:38.129Z,16352.00
2022-07-31T10:08:38.107Z,17056.00
2022-07-31T10:09:38.134Z,16416.00
2022-07-31T10:10:38.073Z,16060.00
2022-07-31T10:11:38.067Z,16128.00
2022-07-31T10:12:38.064Z,16036.00
2022-07-31T10:13:40.687Z,15500.00
2022-07-31T10:14:38.039Z,16096.00
2022-07-31T10:15:38.081Z,19552.00
2022-07-31T10:16:38.041Z,16544.00
2022-07-31T10:17:38.018Z,15808.00
2022-07-31T10:18:41.567Z,14060.00
2022-07-31T10:19:39.010Z,13020.00
2022-07-31T10:20:37.997Z,12288.00
2022-07-31T10:21:37.990Z,11444.00
2022-07-31T10:22:37.996Z,10780.00
2022-07-31T10:23:38.001Z,10384.00
2022-07-31T10:24:37.984Z,10008.00
2022-07-31T10:25:37.994Z,9692.00
2022-07-31T10:26:59.801Z,9468.00
2022-07-31T10:27:39.955Z,9736.00
2022-07-31T10:28:37.976Z,10316.00
2022-07-31T10:29:37.947Z,10616.00
2022-07-31T10:30:37.975Z,10612.00
2022-07-31T10:31:37.940Z,10440.00
2022-07-31T10:32:37.915Z,10352.00
2022-07-31T10:33:45.365Z,10252.00
2022-07-31T10:34:39.959Z,10200.00
2022-07-31T10:35:37.913Z,9940.00
2022-07-31T10:36:37.883Z,9704.00
2022-07-31T10:37:37.875Z,9456.00
2022-07-31T10:38:38.503Z,9340.00
2022-07-31T10:39:38.854Z,9260.00
2022-07-31T10:40:37.893Z,9368.00
2022-07-31T10:41:37.936Z,9624.00
2022-07-31T10:42:37.845Z,10088.00
2022-07-31T10:43:37.843Z,10576.00
2022-07-31T10:44:38.888Z,10820.00
2022-07-31T10:45:38.828Z,11048.00
2022-07-31T10:46:37.898Z,10924.00
2022-07-31T10:47:37.859Z,10940.00
2022-07-31T10:48:37.821Z,10840.00
2022-07-31T10:49:37.842Z,10700.00
2022-07-31T10:50:38.497Z,10772.00
2022-07-31T10:51:37.778Z,10956.00
2022-07-31T10:52:37.864Z,10908.00
2022-07-31T10:53:51.552Z,11104.00
2022-07-31T10:54:38.802Z,11364.00
2022-07-31T10:55:37.783Z,11800.00
2022-07-31T10:56:37.835Z,12004.00
2022-07-31T10:57:55.406Z,12096.00
2022-07-31T10:58:38.790Z,12212.00
2022-07-31T10:59:41.696Z,12208.00
2022-07-31T11:00:38.748Z,12116.00
2022-07-31T11:01:37.743Z,12060.00
2022-07-31T11:02:37.763Z,11996.00
2022-07-31T11:03:37.746Z,11832.00
2022-07-31T11:04:37.707Z,11760.00
2022-07-31T11:06:02.322Z,11700.00
2022-07-31T11:06:38.672Z,11668.00
2022-07-31T11:07:37.735Z,11920.00
2022-07-31T11:08:37.757Z,12552.00
2022-07-31T11:09:50.626Z,12316.00
2022-07-31T11:10:38.725Z,12836.00
2022-07-31T11:11:37.641Z,13444.00
2022-07-31T11:12:37.651Z,13456.00
2022-07-31T11:13:37.654Z,13760.00
2022-07-31T11:14:37.655Z,13300.00
2022-07-31T11:15:37.671Z,13272.00
2022-07-31T11:16:37.647Z,13180.00
2022-07-31T11:18:17.423Z,13192.00
2022-07-31T11:18:38.651Z,13208.00
2022-07-31T11:19:41.242Z,12340.00
2022-07-31T11:20:37.723Z,11904.00
2022-07-31T11:21:39.357Z,11496.00
2022-07-31T11:22:38.587Z,11068.00
2022-07-31T11:23:37.567Z,10856.00
2022-07-31T11:24:37.679Z,10588.00
2022-07-31T11:25:37.621Z,10228.00
2022-07-31T11:26:42.129Z,9716.00
2022-07-31T11:27:37.535Z,9368.00
2022-07-31T11:28:37.557Z,9100.00
2022-07-31T11:29:58.838Z,8992.00
2022-07-31T11:30:38.591Z,8912.00
2022-07-31T11:31:37.536Z,8892.00
2022-07-31T11:32:37.509Z,8968.00
2022-07-31T11:33:42.852Z,8956.00
2022-07-31T11:34:38.606Z,8880.00
2022-07-31T11:35:37.501Z,8796.00
2022-07-31T11:36:37.495Z,8784.00
2022-07-31T11:37:56.875Z,8768.00
2022-07-31T11:38:38.548Z,8816.00
2022-07-31T11:39:37.459Z,8960.00
2022-07-31T11:42:36.357Z,9732.00
2022-07-31T11:43:35.059Z,10056.00
2022-07-31T11:45:11.073Z,10360.00
2022-07-31T11:45:36.208Z,10548.00
2022-07-31T11:48:09.298Z,10696.00
2022-07-31T11:48:11.853Z,10760.00
2022-07-31T11:49:08.104Z,10748.00
2022-07-31T11:49:47.842Z,10672.00
2022-07-31T11:50:37.747Z,10548.00
2022-07-31T11:52:08.017Z,10568.00
2022-07-31T11:52:37.956Z,10696.00
2022-07-31T11:54:08.039Z,10740.00
2022-07-31T11:54:36.092Z,10900.00
2022-07-31T11:56:08.003Z,11004.00
2022-07-31T11:56:36.102Z,11092.00
2022-07-31T11:57:51.003Z,11136.00
2022-07-31T11:59:09.015Z,11212.00
2022-07-31T11:59:46.232Z,11180.00
2022-07-31T12:00:37.059Z,10980.00
2022-07-31T12:01:36.930Z,10744.00
2022-07-31T12:02:36.104Z,10516.00
2022-07-31T12:03:36.016Z,10420.00
2022-07-31T12:04:36.046Z,10336.00
2022-07-31T12:05:39.200Z,10396.00
2022-07-31T12:06:36.520Z,10584.00
2022-07-31T12:07:36.075Z,10824.00
2022-07-31T12:08:36.039Z,11012.00
2022-07-31T12:10:01.289Z,11080.00
2022-07-31T12:10:37.024Z,11256.00
2022-07-31T12:11:35.966Z,11532.00
2022-07-31T12:12:35.956Z,11492.00
2022-07-31T12:13:35.951Z,11228.00
2022-07-31T12:14:36.011Z,11020.00
2022-07-31T12:15:35.998Z,10992.00
2022-07-31T12:16:35.931Z,10884.00
2022-07-31T12:17:35.904Z,10804.00
2022-07-31T12:18:35.924Z,10592.00
2022-07-31T12:19:37.554Z,10376.00
2022-07-31T12:20:37.015Z,10312.00
2022-07-31T12:21:35.907Z,10292.00
2022-07-31T12:22:35.949Z,10536.00
2022-07-31T12:23:40.506Z,10864.00
2022-07-31T12:24:36.873Z,11672.00
2022-07-31T12:25:35.916Z,10992.00
2022-07-31T12:26:35.876Z,10712.00
2022-07-31T12:27:35.854Z,10584.00
2022-07-31T12:28:35.840Z,10752.00
2022-07-31T12:29:35.961Z,10968.00
2022-07-31T12:30:36.872Z,11320.00
2022-07-31T12:31:35.838Z,12132.00
2022-07-31T12:32:35.941Z,11720.00
2022-07-31T12:33:35.789Z,11136.00
2022-07-31T12:34:35.830Z,10716.00
2022-07-31T12:35:54.939Z,10444.00
2022-07-31T12:36:36.861Z,10348.00
2022-07-31T12:37:35.769Z,10304.00
2022-07-31T12:38:45.406Z,10392.00
2022-07-31T12:39:53.664Z,10600.00
2022-07-31T12:40:36.779Z,11940.00
2022-07-31T12:41:35.735Z,11204.00
2022-07-31T12:42:41.172Z,11460.00
2022-07-31T12:43:37.727Z,15616.00
2022-07-31T12:44:35.834Z,14464.00
2022-07-31T12:45:35.713Z,12548.00